Estación Meteorológica Peña el Pijo (Robertgarden) [ 11/20/18 01:38:40 CET ]

Fecha Hora Presion(HPa) Temp (°C) Humedad % Rocio (°C) Viento ( m/s) Direccion Lluvia 1Hora(mm) Lluvia 24H(mm) LLuvia Total(mm)
2018-Nov-12 01:01:36 1005.000 4.5 85 2.2         102.04
2018-Nov-12 02:01:47 1004.600 5.1 86 2.9         102.04
2018-Nov-12 03:01:43 1004.900 4.1 86 1.9         102.04
2018-Nov-12 04:01:45 1004.600 3.6 87 1.6         102.04
2018-Nov-12 05:04:10 1004.600 2.9 87 0.9         102.04
2018-Nov-12 06:01:48 1005.000 2.5 88 0.7         102.04
2018-Nov-12 07:01:26 1005.400 2.4 88 0.6         102.04
2018-Nov-12 08:01:39 1005.700 1.9 88 0.1         102.04
2018-Nov-12 09:01:41 1006.200 3.5 89 1.8         102.04
2018-Nov-12 10:01:55 1006.700 8.7 89 7.0         102.04
2018-Nov-12 11:01:34 1006.400 15.4 73 10.6         102.04
2018-Nov-12 12:02:06 1006.700 16.1 61 8.6         102.04
2018-Nov-12 13:01:43 1006.400 16.4 60 8.7         102.04
2018-Nov-12 14:01:42 1006.300 16.9 59 8.8         102.04
2018-Nov-12 15:01:39 1006.400 17.3 55 8.1         102.04
2018-Nov-12 16:02:06 1006.500 16.2 58 7.9         102.04
2018-Nov-12 17:01:50 1006.900 14.9 62 7.7         102.04
2018-Nov-12 18:01:53 1007.200 12.3 68 6.5         102.04
2018-Nov-12 19:01:43 1008.100 10.1 74 5.7         102.04
2018-Nov-12 20:01:42 1008.700 8.8 78 5.1         102.04
2018-Nov-12 21:01:39 1008.800 7.6 80 4.4         102.04
2018-Nov-12 22:01:44 1009.300 6.4 82 3.5         102.04
2018-Nov-12 23:01:49 1009.600 5.4 84 2.9         102.04

Temperatura Máxima:17°    Temperatura Mínima:
Presión Máxima:1009.600 Hpa    Presión Mínima:1004.600 Hpa


Volver